KAZO/AZO METAR and TAF weather

Enter ICAO airport designator
Station Type Date Time Source
KAZO METAR 2021/02/27 20:53 UTC NOAA

KAZO 272053Z 22009KT 10SM CLR 09/02 A3010 RMK AO2 SLP198 T00940017 53011


Station Type Date Time Source
KAZO Decoded METAR 2021/02/27 20:53 UTC NOAA

KALAMAZOO/BATTLE CREEK AIRPORT, MI, United States (KAZO) 42-14N 085-33W 272M
Feb 27, 2021 - 03:53 PM EST / 2021.02.27 2053 UTC
Wind: from the SW (220 degrees) at 10 MPH (9 KT):0
Visibility: 10 mile(s):0
Sky conditions: clear
Temperature: 48.9 F (9.4 C)
Dew Point: 35.1 F (1.7 C)
Relative Humidity: 58%
Pressure (altimeter): 30.1 in. Hg (1019 hPa)
Pressure tendency: 0.03 inches (1.1 hPa) higher than three hours ago
ob: KAZO 272053Z 22009KT 10SM CLR 09/02 A3010 RMK AO2 SLP198 T00940017 53011
cycle: 21

Station Type Date Time Source
KAZO TAF 2021/02/27 18:57 UTC NOAA

TAF KAZO 271754Z 2718/2818 23009KT P6SM SCT060
FM280100 16006KT 4SM BR BKN050
FM280600 13008KT 3SM BR BKN030
FM281100 12009KT 3SM BR OVC007
FM281200 13010KT 3SM -DZ BR OVC004

Example: see airport list